METAR Data
IDs: Format: Raw Decoded Include TAF

Data at: 0209 UTC 29 Nov 2020

METAR for:KFSW (Fort Madison Muni, IA, US)
Text:KFSW 290155Z AUTO 20009KT 10SM CLR 08/01 A3009 RMK AO2
Temperature: 8.0°C ( 46°F)
Dewpoint: 1.0°C ( 34°F) [RH = 61%]
Pressure (altimeter):30.09 inches Hg (1019.0 mb)
Winds:from the SSW (200 degrees) at 10 MPH (9 knots; 4.6 m/s)
Visibility:10 or more sm (16+ km)
Ceiling:at least 12,000 feet AGL
Clouds:sky clear below 12,000 feet AGL
QC Flag:automated observation with no human augmentation